createdAt,value
2022-12-23T00:01:34.165Z,0.60
2022-12-23T00:04:01.373Z,0.70
2022-12-23T00:06:28.439Z,0.60
2022-12-23T00:08:59.196Z,0.50
2022-12-23T00:11:29.014Z,0.50
2022-12-23T00:17:52.630Z,0.40
2022-12-23T00:24:41.532Z,0.50
2022-12-23T00:27:08.470Z,0.80
2022-12-23T00:29:35.345Z,0.80
2022-12-23T00:36:19.132Z,0.70
2022-12-23T00:49:43.429Z,0.70
2022-12-23T00:56:02.982Z,0.80
2022-12-23T01:05:36.837Z,0.70
2022-12-23T01:11:50.699Z,0.70
2022-12-23T01:18:40.304Z,0.70
2022-12-23T01:25:53.372Z,0.40
2022-12-23T01:32:55.500Z,0.50
2022-12-23T01:39:03.909Z,0.50
2022-12-23T01:45:19.320Z,0.70
2022-12-23T01:51:30.344Z,0.40
2022-12-23T01:54:01.659Z,0.40
2022-12-23T01:56:37.638Z,0.50
2022-12-23T02:14:27.612Z,0.50
2022-12-23T02:21:02.515Z,0.50
2022-12-23T02:27:32.285Z,0.20
2022-12-23T02:30:20.616Z,0.20
2022-12-23T02:33:11.690Z,0.30
2022-12-23T02:36:07.128Z,0.30
2022-12-23T02:38:48.401Z,0.30
2022-12-23T02:41:30.970Z,0.40
2022-12-23T02:44:02.868Z,0.40
2022-12-23T02:46:56.880Z,0.30
2022-12-23T02:53:40.495Z,0.30
2022-12-23T02:56:10.377Z,0.30
2022-12-23T02:59:35.365Z,0.40
2022-12-23T03:25:46.305Z,0.40
2022-12-23T03:40:05.218Z,0.60
2022-12-23T03:46:21.603Z,0.80
2022-12-23T04:00:50.664Z,0.70
2022-12-23T04:13:30.979Z,0.60
2022-12-23T04:15:59.266Z,0.60
2022-12-23T04:18:26.305Z,0.40
2022-12-23T04:21:01.943Z,0.50
2022-12-23T04:27:55.460Z,0.60
2022-12-23T04:34:49.591Z,0.80
2022-12-23T04:40:57.106Z,0.90
2022-12-23T04:48:36.303Z,1.10
2022-12-23T04:51:03.786Z,1.00
2022-12-23T04:53:30.769Z,0.90
2022-12-23T05:04:15.297Z,1.00
2022-12-23T05:06:48.120Z,1.30
2022-12-23T05:13:27.957Z,1.40
2022-12-23T05:35:48.862Z,1.50
2022-12-23T05:39:04.968Z,1.50
2022-12-23T05:53:07.017Z,1.40
2022-12-23T05:59:31.254Z,1.30
2022-12-23T06:05:57.159Z,1.30
2022-12-23T06:31:39.237Z,1.00
2022-12-23T06:34:06.827Z,0.90
2022-12-23T06:36:33.656Z,1.00
2022-12-23T06:39:01.564Z,1.00
2022-12-23T06:41:31.973Z,1.00
2022-12-23T06:43:58.859Z,0.80
2022-12-23T06:46:25.827Z,0.90
2022-12-23T06:48:53.096Z,0.90
2022-12-23T06:51:20.341Z,1.00
2022-12-23T06:53:48.215Z,1.00
2022-12-23T06:56:15.459Z,1.00
2022-12-23T06:58:42.353Z,0.90
2022-12-23T07:01:10.461Z,0.90
2022-12-23T07:03:37.637Z,1.00
2022-12-23T07:06:04.890Z,1.10
2022-12-23T07:08:31.844Z,1.10
2022-12-23T07:11:00.179Z,1.20
2022-12-23T07:13:27.853Z,1.20
2022-12-23T07:15:58.427Z,1.10
2022-12-23T07:18:27.748Z,1.20
2022-12-23T07:20:59.272Z,1.20
2022-12-23T07:23:26.234Z,1.30
2022-12-23T07:25:53.174Z,1.30
2022-12-23T07:28:20.394Z,1.30
2022-12-23T07:30:47.877Z,1.40
2022-12-23T07:33:14.859Z,1.40
2022-12-23T07:35:44.225Z,1.40
2022-12-23T07:38:11.298Z,1.40
2022-12-23T07:40:44.205Z,1.50
2022-12-23T07:43:22.897Z,1.50
2022-12-23T07:45:55.636Z,1.40
2022-12-23T07:48:26.286Z,1.40
2022-12-23T07:50:54.560Z,1.20
2022-12-23T07:53:21.494Z,1.30
2022-12-23T07:55:54.585Z,1.30
2022-12-23T07:58:23.291Z,1.40
2022-12-23T08:00:50.326Z,1.40
2022-12-23T08:03:17.740Z,1.40
2022-12-23T08:05:44.843Z,1.40
2022-12-23T08:08:12.182Z,1.30
2022-12-23T08:10:44.483Z,1.30
2022-12-23T08:13:15.071Z,1.50
2022-12-23T08:15:41.861Z,1.50
2022-12-23T08:18:09.019Z,1.50
2022-12-23T08:20:35.956Z,1.30
2022-12-23T08:23:02.861Z,1.30
2022-12-23T08:25:29.727Z,1.40
2022-12-23T08:27:56.912Z,1.50
2022-12-23T08:30:23.868Z,1.60
2022-12-23T08:32:50.747Z,1.70
2022-12-23T08:35:17.871Z,1.80
2022-12-23T08:37:44.763Z,1.90
2022-12-23T08:40:12.315Z,1.90
2022-12-23T08:42:39.139Z,2.00
2022-12-23T08:45:06.490Z,2.10
2022-12-23T08:47:33.319Z,2.20
2022-12-23T08:50:00.302Z,2.10
2022-12-23T08:56:19.720Z,2.40
2022-12-23T08:58:49.196Z,2.40
2022-12-23T09:01:17.825Z,2.50
2022-12-23T09:03:45.351Z,2.50
2022-12-23T09:06:13.693Z,2.60
2022-12-23T09:08:41.525Z,2.70
2022-12-23T09:11:13.037Z,2.80
2022-12-23T09:13:40.900Z,2.90
2022-12-23T09:16:08.847Z,3.10
2022-12-23T09:18:36.755Z,3.30
2022-12-23T09:21:09.019Z,3.50
2022-12-23T09:23:36.225Z,3.60
2022-12-23T09:26:05.160Z,3.60
2022-12-23T09:28:32.141Z,3.50
2022-12-23T09:31:06.103Z,3.50
2022-12-23T09:33:33.084Z,3.60
2022-12-23T09:36:00.843Z,3.60
2022-12-23T09:38:27.822Z,3.90
2022-12-23T09:41:11.409Z,3.90
2022-12-23T09:44:00.563Z,4.10
2022-12-23T09:46:32.294Z,4.40
2022-12-23T09:49:09.418Z,4.60
2022-12-23T09:51:36.186Z,4.70
2022-12-23T09:54:31.687Z,4.60
2022-12-23T09:57:24.128Z,4.70
2022-12-23T10:00:08.378Z,4.80
2022-12-23T10:02:57.166Z,4.90
2022-12-23T10:05:42.245Z,5.10
2022-12-23T10:08:38.439Z,5.10
2022-12-23T10:11:19.293Z,5.40
2022-12-23T10:13:58.775Z,5.50
2022-12-23T10:16:33.801Z,5.80
2022-12-23T10:19:07.008Z,5.80
2022-12-23T10:21:43.737Z,6.00
2022-12-23T10:24:20.157Z,6.30
2022-12-23T10:26:56.321Z,6.30
2022-12-23T10:29:31.335Z,6.40
2022-12-23T10:32:01.484Z,6.50
2022-12-23T10:34:42.872Z,6.50
2022-12-23T10:37:37.297Z,6.50
2022-12-23T10:40:09.996Z,6.70
2022-12-23T10:42:52.998Z,6.60
2022-12-23T10:45:46.064Z,6.50
2022-12-23T10:48:31.301Z,6.50
2022-12-23T10:51:11.695Z,6.50
2022-12-23T10:53:55.388Z,6.80
2022-12-23T10:56:25.646Z,6.90
2022-12-23T10:58:56.824Z,6.90
2022-12-23T11:01:27.416Z,7.10
2022-12-23T11:04:09.268Z,7.40
2022-12-23T11:07:10.650Z,7.70
2022-12-23T11:09:56.770Z,7.80
2022-12-23T11:12:43.552Z,7.60
2022-12-23T11:15:47.204Z,7.70
2022-12-23T11:18:14.108Z,7.70
2022-12-23T11:20:43.615Z,7.70
2022-12-23T11:23:33.266Z,7.60
2022-12-23T11:26:10.352Z,7.90
2022-12-23T11:28:42.822Z,8.00
2022-12-23T11:31:17.041Z,8.20
2022-12-23T11:33:55.639Z,8.20
2022-12-23T11:36:27.462Z,8.40
2022-12-23T11:39:14.983Z,8.50
2022-12-23T11:42:07.403Z,8.40
2022-12-23T11:44:48.146Z,8.20
2022-12-23T11:47:22.995Z,8.30
2022-12-23T11:49:55.754Z,8.50
2022-12-23T11:52:34.233Z,8.60
2022-12-23T11:55:06.053Z,9.00
2022-12-23T11:57:43.343Z,9.00
2022-12-23T12:00:25.183Z,9.00
2022-12-23T12:02:58.985Z,9.10
2022-12-23T12:05:33.310Z,9.20
2022-12-23T12:08:04.459Z,9.10
2022-12-23T12:10:35.361Z,9.40
2022-12-23T12:13:06.143Z,9.40
2022-12-23T12:15:47.839Z,9.10
2022-12-23T12:18:19.056Z,9.00
2022-12-23T12:20:51.219Z,9.00
2022-12-23T12:23:46.539Z,8.90
2022-12-23T12:26:35.690Z,8.90
2022-12-23T12:29:36.368Z,8.90
2022-12-23T12:32:07.673Z,9.10
2022-12-23T12:34:34.689Z,9.30
2022-12-23T12:37:22.764Z,9.30
2022-12-23T12:39:54.483Z,9.60
2022-12-23T12:42:32.498Z,9.90
2022-12-23T12:45:12.419Z,10.00
2022-12-23T12:48:24.175Z,10.00
2022-12-23T12:51:10.059Z,10.10
2022-12-23T12:53:39.097Z,10.10
2022-12-23T12:56:22.780Z,10.10
2022-12-23T12:58:49.664Z,10.40
2022-12-23T13:01:42.979Z,10.50
2022-12-23T13:04:28.741Z,10.50
2022-12-23T13:07:13.818Z,10.60
2022-12-23T13:09:55.984Z,10.70
2022-12-23T13:12:38.915Z,10.60
2022-12-23T13:15:22.988Z,10.60
2022-12-23T13:17:49.803Z,10.40
2022-12-23T13:20:39.139Z,10.20
2022-12-23T13:23:41.523Z,10.20
2022-12-23T13:26:15.233Z,10.20
2022-12-23T13:28:59.446Z,10.10
2022-12-23T13:31:33.831Z,9.90
2022-12-23T13:34:36.481Z,9.80
2022-12-23T13:37:29.144Z,9.70
2022-12-23T13:40:14.979Z,9.50
2022-12-23T13:42:55.551Z,9.30
2022-12-23T13:45:28.388Z,9.00
2022-12-23T13:48:05.404Z,8.90
2022-12-23T13:50:42.262Z,8.90
2022-12-23T13:53:21.213Z,8.90
2022-12-23T13:55:54.795Z,8.80
2022-12-23T13:58:24.682Z,8.70
2022-12-23T14:01:10.196Z,8.70
2022-12-23T14:03:39.166Z,8.70
2022-12-23T14:06:56.205Z,8.70
2022-12-23T14:09:31.336Z,8.70
2022-12-23T14:12:08.187Z,8.60
2022-12-23T14:14:35.388Z,8.50
2022-12-23T14:17:12.931Z,8.20
2022-12-23T14:19:51.758Z,8.20
2022-12-23T14:22:27.037Z,7.90
2022-12-23T14:25:26.963Z,7.80
2022-12-23T14:28:14.976Z,7.80
2022-12-23T14:30:46.758Z,7.80
2022-12-23T14:33:30.638Z,7.80
2022-12-23T14:36:25.639Z,7.70
2022-12-23T14:39:29.013Z,7.70
2022-12-23T14:42:01.652Z,7.50
2022-12-23T14:44:38.151Z,7.30
2022-12-23T14:47:25.102Z,7.30
2022-12-23T14:49:52.302Z,7.20
2022-12-23T14:52:44.653Z,7.40
2022-12-23T14:55:32.654Z,7.40
2022-12-23T14:58:20.354Z,7.30
2022-12-23T15:00:56.458Z,7.10
2022-12-23T15:03:23.710Z,6.90
2022-12-23T15:05:51.329Z,6.90
2022-12-23T15:08:33.115Z,6.90
2022-12-23T15:11:00.371Z,6.90
2022-12-23T15:13:29.340Z,6.70
2022-12-23T15:16:01.300Z,6.40
2022-12-23T15:18:29.099Z,6.60
2022-12-23T15:21:09.525Z,6.30
2022-12-23T15:23:36.451Z,6.10
2022-12-23T15:26:03.670Z,6.10
2022-12-23T15:28:39.551Z,6.00
2022-12-23T15:31:15.276Z,5.80
2022-12-23T15:34:04.080Z,5.80
2022-12-23T15:36:36.892Z,5.80
2022-12-23T15:39:08.214Z,5.60
2022-12-23T15:41:45.711Z,5.90
2022-12-23T15:44:24.550Z,5.80
2022-12-23T15:46:52.445Z,5.70
2022-12-23T15:49:22.451Z,5.50
2022-12-23T15:52:16.554Z,5.50
2022-12-23T15:54:52.198Z,5.40
2022-12-23T15:57:21.479Z,5.50
2022-12-23T15:59:48.955Z,5.40
2022-12-23T16:02:59.599Z,5.20
2022-12-23T16:05:31.493Z,5.30
2022-12-23T16:08:29.742Z,5.10
2022-12-23T16:11:12.104Z,5.00
2022-12-23T16:13:44.927Z,5.10
2022-12-23T16:16:39.842Z,5.00
2022-12-23T16:19:26.573Z,5.10
2022-12-23T16:21:53.724Z,5.30
2022-12-23T16:24:20.968Z,5.20
2022-12-23T16:26:47.953Z,5.10
2022-12-23T16:29:15.301Z,5.10
2022-12-23T16:31:51.071Z,5.10
2022-12-23T16:34:21.407Z,4.90
2022-12-23T16:36:48.330Z,5.00
2022-12-23T16:39:21.786Z,5.10
2022-12-23T16:41:50.127Z,5.10
2022-12-23T16:44:17.082Z,5.00
2022-12-23T16:46:46.519Z,4.80
2022-12-23T16:49:16.854Z,4.90
2022-12-23T16:51:44.461Z,5.00
2022-12-23T16:54:19.340Z,4.90
2022-12-23T16:56:50.203Z,5.00
2022-12-23T16:59:17.029Z,4.80
2022-12-23T17:01:46.544Z,5.20
2022-12-23T17:04:13.462Z,5.10
2022-12-23T17:06:40.809Z,4.60
2022-12-23T17:09:10.629Z,4.80
2022-12-23T17:11:44.701Z,4.80
2022-12-23T17:14:17.640Z,4.80
2022-12-23T17:16:45.507Z,4.90
2022-12-23T17:19:12.792Z,4.90
2022-12-23T17:21:41.971Z,4.80
2022-12-23T17:24:17.689Z,4.70
2022-12-23T17:26:44.449Z,4.70
2022-12-23T17:29:13.024Z,4.70
2022-12-23T17:31:41.350Z,4.80
2022-12-23T17:34:17.289Z,4.70
2022-12-23T17:36:49.594Z,4.70
2022-12-23T17:39:17.547Z,4.60
2022-12-23T17:41:44.359Z,4.60
2022-12-23T17:44:14.651Z,4.60
2022-12-23T17:46:41.841Z,4.60
2022-12-23T17:49:08.884Z,4.70
2022-12-23T17:51:35.895Z,4.50
2022-12-23T17:54:04.603Z,4.50
2022-12-23T17:56:31.411Z,4.60
2022-12-23T17:58:58.609Z,4.80
2022-12-23T18:01:31.255Z,4.70
2022-12-23T18:03:59.953Z,4.50
2022-12-23T18:06:28.575Z,4.70
2022-12-23T18:08:57.428Z,4.90
2022-12-23T18:11:34.446Z,4.90
2022-12-23T18:14:02.021Z,4.70
2022-12-23T18:16:28.977Z,4.70
2022-12-23T18:18:56.274Z,4.60
2022-12-23T18:21:25.660Z,4.60
2022-12-23T18:23:54.903Z,4.60
2022-12-23T18:26:21.666Z,4.80
2022-12-23T18:28:48.570Z,5.00
2022-12-23T18:31:19.106Z,4.80
2022-12-23T18:33:46.769Z,4.90
2022-12-23T18:36:31.552Z,4.90
2022-12-23T18:38:58.775Z,4.50
2022-12-23T18:41:27.193Z,4.50
2022-12-23T18:43:54.446Z,4.70
2022-12-23T18:46:21.653Z,4.70
2022-12-23T18:48:49.147Z,4.80
2022-12-23T18:51:17.515Z,4.90
2022-12-23T18:53:45.283Z,5.00
2022-12-23T18:56:17.061Z,4.80
2022-12-23T18:58:43.758Z,4.80
2022-12-23T19:01:12.705Z,4.80
2022-12-23T19:03:39.933Z,4.80
2022-12-23T19:06:08.433Z,4.80
2022-12-23T19:08:37.195Z,4.90
2022-12-23T19:11:17.877Z,5.00
2022-12-23T19:13:45.698Z,4.90
2022-12-23T19:16:15.776Z,4.90
2022-12-23T19:18:43.167Z,5.00
2022-12-23T19:21:10.152Z,4.80
2022-12-23T19:23:39.681Z,4.80
2022-12-23T19:26:06.715Z,5.00
2022-12-23T19:28:36.517Z,5.00
2022-12-23T19:31:10.832Z,5.00
2022-12-23T19:33:39.357Z,4.90
2022-12-23T19:36:15.205Z,4.80
2022-12-23T19:38:42.226Z,4.80
2022-12-23T19:41:09.545Z,4.70
2022-12-23T19:43:39.856Z,4.80
2022-12-23T19:46:08.889Z,4.70
2022-12-23T19:48:36.665Z,4.80
2022-12-23T19:51:06.538Z,5.00
2022-12-23T19:53:34.180Z,4.90
2022-12-23T19:56:12.872Z,4.90
2022-12-23T19:58:41.571Z,5.00
2022-12-23T20:01:17.649Z,4.80
2022-12-23T20:03:46.371Z,4.70
2022-12-23T20:06:22.213Z,4.70
2022-12-23T20:08:52.628Z,4.80
2022-12-23T20:11:26.458Z,4.80
2022-12-23T20:13:54.948Z,4.70
2022-12-23T20:16:22.562Z,4.60
2022-12-23T20:18:49.697Z,4.70
2022-12-23T20:21:16.716Z,4.60
2022-12-23T20:23:43.657Z,4.60
2022-12-23T20:26:12.977Z,4.50
2022-12-23T20:28:40.379Z,4.50
2022-12-23T20:31:29.958Z,4.50
2022-12-23T20:33:57.902Z,4.60
2022-12-23T20:36:30.264Z,4.50
2022-12-23T20:38:57.719Z,4.20
2022-12-23T20:41:26.906Z,4.20
2022-12-23T20:44:23.841Z,4.30
2022-12-23T20:46:41.579Z,4.40
2022-12-23T20:49:08.640Z,4.30
2022-12-23T20:51:35.539Z,4.30
2022-12-23T20:54:02.703Z,4.30
2022-12-23T20:56:30.552Z,4.30
2022-12-23T20:58:59.287Z,4.40
2022-12-23T21:01:32.284Z,4.40
2022-12-23T21:04:02.400Z,4.30
2022-12-23T21:06:30.966Z,4.40
2022-12-23T21:08:59.965Z,4.40
2022-12-23T21:11:35.849Z,4.40
2022-12-23T21:14:06.811Z,4.40
2022-12-23T21:16:36.873Z,4.40
2022-12-23T21:19:05.441Z,4.30
2022-12-23T21:21:32.403Z,4.30
2022-12-23T21:24:04.277Z,4.40
2022-12-23T21:26:33.310Z,4.30
2022-12-23T21:29:01.400Z,4.20
2022-12-23T21:31:30.571Z,4.20
2022-12-23T21:33:58.620Z,4.30
2022-12-23T21:36:28.034Z,4.30
2022-12-23T21:38:55.296Z,4.40
2022-12-23T21:41:24.750Z,4.50
2022-12-23T21:43:52.242Z,4.40
2022-12-23T21:46:22.028Z,4.40
2022-12-23T21:48:49.913Z,4.10
2022-12-23T21:51:40.618Z,4.00
2022-12-23T21:54:09.403Z,4.10
2022-12-23T21:56:36.586Z,4.10
2022-12-23T21:59:06.310Z,3.90
2022-12-23T22:01:33.787Z,3.80
2022-12-23T22:04:00.870Z,3.80
2022-12-23T22:06:30.355Z,3.80
2022-12-23T22:08:57.810Z,4.00
2022-12-23T22:11:30.855Z,4.00
2022-12-23T22:13:59.372Z,3.90
2022-12-23T22:16:28.254Z,3.60
2022-12-23T22:18:57.416Z,3.60
2022-12-23T22:21:26.605Z,3.70
2022-12-23T22:23:54.349Z,3.80
2022-12-23T22:26:25.802Z,4.00
2022-12-23T22:28:54.079Z,3.90
2022-12-23T22:31:32.084Z,3.80
2022-12-23T22:33:59.458Z,3.40
2022-12-23T22:36:26.530Z,3.50
2022-12-23T22:38:55.923Z,3.60
2022-12-23T22:41:24.613Z,3.50
2022-12-23T22:43:51.596Z,3.70
2022-12-23T22:46:19.018Z,3.70
2022-12-23T22:48:46.454Z,3.90
2022-12-23T22:51:18.850Z,3.90
2022-12-23T22:53:46.543Z,3.90
2022-12-23T22:56:15.598Z,3.80
2022-12-23T22:58:42.767Z,3.80
2022-12-23T23:01:22.481Z,3.90
2022-12-23T23:03:56.869Z,3.90
2022-12-23T23:06:32.922Z,3.80
2022-12-23T23:09:00.501Z,3.60
2022-12-23T23:11:28.389Z,3.60
2022-12-23T23:13:55.919Z,3.90
2022-12-23T23:16:24.104Z,3.70
2022-12-23T23:18:51.969Z,3.80
2022-12-23T23:21:19.286Z,3.80
2022-12-23T23:23:46.290Z,3.60
2022-12-23T23:26:13.514Z,3.50
2022-12-23T23:28:41.355Z,3.50
2022-12-23T23:33:57.915Z,3.50
2022-12-23T23:36:25.190Z,3.50
2022-12-23T23:38:52.237Z,3.70
2022-12-23T23:41:23.381Z,3.70
2022-12-23T23:43:51.139Z,3.50
2022-12-23T23:46:18.117Z,3.40
2022-12-23T23:48:45.171Z,3.40
2022-12-23T23:51:12.838Z,3.10
2022-12-23T23:53:40.435Z,3.20
2022-12-23T23:56:08.390Z,3.30
2022-12-23T23:58:37.117Z,3.30
